Etusivu
METAR-TAF:

METAR-TAF

Lentoasemat :

Powell River, Brittiläinen Kolumbia, Kanada

Leveyspiiri: 49-50N, Pituuspiiri: 124-30W, korkeus merenpinnasta: 130 m

Tämänhetkinen sää

Tämä raportti tehtiin 27 minuuttia sitten, kello 19.00 UTC
Tuuli 11 kn idästä/kaakosta puuskistuen 19 kn:hen, vaihdellen idän/koillisen ja kaakon välillä
Lämpötila 12°C
Kosteus 94%
Ilmanpaine 1006 hPa
Näkyvyys: 16.1 km
Hajanaisia pilviä 800 ft:n korkeudessa
Pilvistä 2800 ft:n korkeudessa
heikkoa sadetta

METAR: CYPW 201900Z 11011G19KT 070V130 10SM -RA SCT008 OVC028 12/11 A2972 RMK SF3SC5 VIS N-E 3 LO CLD BR SLP067 DENSITY ALT 500FT

Aika: 12:27 (19:27 UTC)


TAF: puuttuu

Säähavainnot ja -ennusteet yli 4000 lentoasemalta (METAR- ja TAF-raportit).

Käytössä olevat sääasemat on merkitty karttaan keltaisilla ja punaisilla pisteillä.

Aseta hiiri pisteen päälle nähdäksesi sääaseman nimen.

Klikkaa sitten nähdäksesi säähavainnot ja -ennusteet.

Kartan vaihtaminen: klikkaa mustalla rastilla varustettuja vihreitä pisteitä, niin voit zoomata sisään; viivalla varustettua vihreää pistettä, niin voit zoomata ulos tai vihreitä nuolia, niin pääset viereisille kartoille.


METAR-TAF: